TAF KILG
KILG 072322Z 0800/0824 31005KT P6SM OVC200 FM080300 VRB03KT P6SM OVC150 FM081000 VRB03KT P6SM OVC100 FM081600 14005KT P6SM OVC070 FM081900 18005KT P6SM OVC070 FM082000 28005KT P6SM OVC100=
METAR KILG
WC KILG
WS KILG
WV KILG